Time;durP1;ratioP1;P1;durP2;ratioP2;P2;SDS_P1;SDS_P2;PMS_P1;PMS_P2;Temp;Humidity;BMP_temperature;BMP_pressure;BME280_temperature;BME280_humidity;BME280_pressure;Samples;Min_cycle;Max_cycle;Signal;HPM_P1;HPM_P2
2021/08/11 00:01:36;;;;;;;11.40;6.25;;;15.30;99.90;;;;;;5053041;28;20037;-75
2021/08/11 00:04:01;;;;;;;11.07;6.68;;;15.30;99.90;;;;;;5055274;28;20446;-76
2021/08/11 00:06:27;;;;;;;9.68;6.50;;;15.20;99.90;;;;;;5054542;28;20028;-76
2021/08/11 00:08:53;;;;;;;17.27;6.93;;;15.30;99.90;;;;;;5059997;28;20046;-75
2021/08/11 00:11:19;;;;;;;15.13;6.55;;;15.30;99.90;;;;;;5054959;28;20083;-75
2021/08/11 00:13:44;;;;;;;18.45;6.18;;;15.30;99.90;;;;;;5056503;28;20036;-75
2021/08/11 00:16:10;;;;;;;13.98;6.38;;;15.30;99.90;;;;;;5054847;28;20481;-76
2021/08/11 00:18:37;;;;;;;13.95;7.05;;;15.30;99.90;;;;;;5054297;28;20085;-76
2021/08/11 00:21:03;;;;;;;10.30;6.40;;;15.30;99.90;;;;;;5053888;28;20059;-75
2021/08/11 00:23:29;;;;;;;13.85;5.95;;;15.30;99.90;;;;;;5053661;28;20074;-75
2021/08/11 00:25:54;;;;;;;13.68;6.43;;;15.30;99.90;;;;;;5051554;28;20021;-76
2021/08/11 00:28:21;;;;;;;10.57;5.07;;;15.30;99.90;;;;;;5068998;28;20167;-76
2021/08/11 00:30:48;;;;;;;12.07;4.80;;;15.30;99.90;;;;;;5052269;28;20428;-75
2021/08/11 00:33:13;;;;;;;13.07;5.47;;;15.30;99.90;;;;;;5052970;28;20032;-77
2021/08/11 00:35:39;;;;;;;11.30;5.50;;;15.30;99.90;;;;;;5050018;28;20043;-75
2021/08/11 00:38:04;;;;;;;8.15;5.18;;;15.30;99.90;;;;;;5051283;28;20087;-76
2021/08/11 00:40:32;;;;;;;8.35;4.95;;;15.30;99.90;;;;;;5048386;28;20032;-75
2021/08/11 00:42:59;;;;;;;13.50;5.78;;;15.30;99.90;;;;;;5051686;28;20047;-76
2021/08/11 00:45:24;;;;;;;10.20;5.30;;;15.30;99.90;;;;;;5051290;28;20078;-76
2021/08/11 00:47:52;;;;;;;12.13;5.43;;;15.30;99.90;;;;;;5049996;28;20427;-79
2021/08/11 00:50:19;;;;;;;7.05;4.43;;;15.30;99.90;;;;;;5049720;28;20024;-76
2021/08/11 00:52:44;;;;;;;10.80;4.23;;;15.20;99.90;;;;;;5062789;28;20029;-75
2021/08/11 00:55:11;;;;;;;6.72;4.00;;;15.20;99.90;;;;;;5050966;28;20037;-75
2021/08/11 00:57:39;;;;;;;6.72;4.22;;;15.30;99.90;;;;;;5062970;28;20083;-75
2021/08/11 01:00:05;;;;;;;9.30;4.82;;;15.30;99.90;;;;;;5052626;28;20504;-75
2021/08/11 01:02:33;;;;;;;8.43;4.25;;;15.30;99.90;;;;;;5052112;28;20041;-75
2021/08/11 01:05:00;;;;;;;7.50;3.80;;;15.30;99.90;;;;;;5053619;28;20029;-75
2021/08/11 01:07:27;;;;;;;7.47;4.20;;;15.30;99.90;;;;;;5053049;28;20104;-75
2021/08/11 01:09:54;;;;;;;7.05;4.03;;;15.40;99.90;;;;;;5049655;28;20047;-74
2021/08/11 01:12:23;;;;;;;7.55;3.67;;;15.40;99.90;;;;;;5051637;28;20031;-74
2021/08/11 01:14:50;;;;;;;8.00;4.22;;;15.40;99.90;;;;;;5049174;28;20116;-74
2021/08/11 01:17:15;;;;;;;10.52;3.60;;;15.50;99.90;;;;;;5051254;28;20444;-75
2021/08/11 01:19:41;;;;;;;5.88;4.18;;;15.50;99.90;;;;;;5050030;28;20033;-77
2021/08/11 01:22:16;;;;;;;6.65;3.85;;;15.50;99.90;;;;;;5050673;28;20025;-76
2021/08/11 01:25:17;;;;;;;6.63;3.67;;;15.50;99.90;;;;;;5051653;28;20032;-74
2021/08/11 01:28:24;;;;;;;8.13;4.50;;;15.50;99.90;;;;;;5050879;28;20029;-75
2021/08/11 01:31:15;;;;;;;11.48;4.18;;;15.50;99.90;;;;;;5051230;28;20033;-74
2021/08/11 01:33:47;;;;;;;9.88;4.47;;;15.50;99.90;;;;;;5045497;28;20049;-75
2021/08/11 01:36:41;;;;;;;8.98;3.80;;;15.50;99.90;;;;;;5061789;28;20028;-75
2021/08/11 01:39:32;;;;;;;5.95;3.63;;;15.50;99.90;;;;;;5051653;28;20041;-75
2021/08/11 01:42:12;;;;;;;6.85;4.45;;;15.50;99.90;;;;;;5051573;28;20074;-75
2021/08/11 01:44:59;;;;;;;8.10;3.83;;;15.50;99.90;;;;;;5069576;28;20089;-75
2021/08/11 01:47:29;;;;;;;;;;;15.50;99.90;;;;;;5051105;28;20484;-75
2021/08/11 01:49:55;;;;;;;3.88;3.30;;;15.50;99.90;;;;;;5053334;28;20375;-76
2021/08/11 01:52:21;;;;;;;6.15;4.10;;;15.50;99.90;;;;;;5054169;28;20123;-75
2021/08/11 01:54:48;;;;;;;4.40;3.55;;;15.50;99.90;;;;;;5054250;28;20051;-75
2021/08/11 01:57:15;;;;;;;6.65;4.22;;;15.40;99.90;;;;;;5051502;28;20028;-75
2021/08/11 01:59:41;;;;;;;5.00;3.90;;;15.40;99.90;;;;;;5051563;28;20029;-75
2021/08/11 02:02:10;;;;;;;6.70;3.88;;;15.40;99.90;;;;;;5053519;28;20049;-75
2021/08/11 02:04:39;;;;;;;6.80;3.85;;;15.40;99.90;;;;;;5068771;28;20033;-77
2021/08/11 02:07:05;;;;;;;6.38;4.38;;;15.30;99.90;;;;;;5052184;28;20021;-76
2021/08/11 02:09:31;;;;;;;7.55;4.10;;;15.30;99.90;;;;;;5052942;28;20112;-75
2021/08/11 02:11:57;;;;;;;7.40;5.07;;;15.20;99.90;;;;;;5052249;28;20033;-75
2021/08/11 02:14:23;;;;;;;6.95;4.35;;;15.20;99.90;;;;;;5050975;28;20090;-75
2021/08/11 02:16:50;;;;;;;7.20;4.45;;;15.20;99.90;;;;;;5050678;28;20482;-75
2021/08/11 02:19:16;;;;;;;6.20;4.03;;;15.20;99.90;;;;;;5044603;28;20040;-76
2021/08/11 02:21:42;;;;;;;7.47;4.95;;;15.10;99.90;;;;;;5051636;28;20099;-76
2021/08/11 02:24:10;;;;;;;7.90;4.43;;;15.10;99.90;;;;;;5052006;28;20021;-75
2021/08/11 02:26:58;;;;;;;10.00;5.05;;;15.20;99.90;;;;;;5050954;28;20023;-75
2021/08/11 02:30:04;;;;;;;13.68;4.90;;;15.20;99.90;;;;;;5050753;28;20053;-75
2021/08/11 02:32:52;;;;;;;11.55;5.32;;;15.20;99.90;;;;;;5051759;28;20074;-75
2021/08/11 02:35:24;;;;;;;9.50;6.15;;;15.20;99.90;;;;;;5052631;28;20061;-75
2021/08/11 02:37:58;;;;;;;7.80;5.82;;;15.20;99.90;;;;;;5051640;28;20040;-74
2021/08/11 02:40:59;;;;;;;11.02;5.88;;;15.20;99.90;;;;;;5052756;28;20064;-75
2021/08/11 02:43:38;;;;;;;12.45;6.30;;;15.20;99.90;;;;;;5067997;28;20416;-75
2021/08/11 02:46:12;;;;;;;8.52;5.65;;;15.30;99.90;;;;;;5051482;28;20025;-75
2021/08/11 02:48:40;;;;;;;11.77;6.15;;;15.20;99.90;;;;;;5052862;28;20029;-75
2021/08/11 02:51:08;;;;;;;11.63;7.05;;;15.30;99.90;;;;;;5050812;28;20028;-75
2021/08/11 02:53:36;;;;;;;12.13;6.65;;;15.30;99.90;;;;;;5052646;28;20086;-75
2021/08/11 02:56:02;;;;;;;8.98;6.72;;;15.30;99.90;;;;;;5055504;28;20570;-74
2021/08/11 02:58:29;;;;;;;11.27;6.50;;;15.30;99.90;;;;;;5057127;28;20072;-75
2021/08/11 03:00:57;;;;;;;15.60;7.40;;;15.30;99.90;;;;;;5055329;28;20060;-75
2021/08/11 03:03:23;;;;;;;12.55;6.78;;;15.30;99.90;;;;;;5057284;28;20438;-75
2021/08/11 03:05:48;;;;;;;14.27;6.90;;;15.20;99.90;;;;;;5052237;28;20040;-74
2021/08/11 03:08:15;;;;;;;11.40;7.32;;;15.20;99.90;;;;;;5053603;28;20025;-75
2021/08/11 03:10:41;;;;;;;12.17;7.50;;;15.20;99.90;;;;;;5054981;28;20029;-75
2021/08/11 03:13:12;;;;;;;15.57;8.15;;;15.20;99.90;;;;;;5056287;28;20027;-75
2021/08/11 03:15:40;;;;;;;15.43;8.10;;;15.30;99.90;;;;;;5055297;28;20499;-75
2021/08/11 03:18:08;;;;;;;15.40;7.88;;;15.30;99.90;;;;;;5070743;28;20040;-75
2021/08/11 03:20:34;;;;;;;10.77;7.43;;;15.30;99.90;;;;;;5053700;28;20394;-75
2021/08/11 03:22:59;;;;;;;12.15;8.02;;;15.30;99.90;;;;;;5052822;28;20032;-75
2021/08/11 03:25:25;;;;;;;11.38;7.43;;;15.30;99.90;;;;;;5053417;28;20041;-75
2021/08/11 03:27:51;;;;;;;14.80;8.98;;;15.30;99.90;;;;;;5053217;28;20419;-74
2021/08/11 03:30:16;;;;;;;16.15;9.07;;;15.40;99.90;;;;;;5053807;28;20024;-74
2021/08/11 03:32:42;;;;;;;17.20;8.80;;;15.40;99.90;;;;;;5053255;28;20069;-75
2021/08/11 03:35:08;;;;;;;13.15;8.20;;;15.40;99.90;;;;;;5054132;28;20082;-74
2021/08/11 03:37:33;;;;;;;14.63;8.63;;;15.40;99.90;;;;;;5053476;28;20021;-74
2021/08/11 03:39:59;;;;;;;14.32;7.90;;;15.40;99.90;;;;;;5052937;28;20111;-75
2021/08/11 03:42:25;;;;;;;11.20;7.30;;;15.40;99.90;;;;;;5054035;28;20028;-77
2021/08/11 03:44:51;;;;;;;15.90;8.93;;;15.40;99.90;;;;;;5051195;28;20492;-75
2021/08/11 03:47:16;;;;;;;19.05;9.30;;;15.40;99.90;;;;;;5053788;28;20057;-75
2021/08/11 03:49:45;;;;;;;18.45;8.88;;;15.30;99.90;;;;;;5054667;28;20500;-75
2021/08/11 03:52:11;;;;;;;17.52;8.05;;;15.40;99.90;;;;;;5055478;28;20038;-77
2021/08/11 03:54:36;;;;;;;12.73;7.45;;;15.40;99.90;;;;;;5055184;28;20035;-74
2021/08/11 03:57:02;;;;;;;20.73;9.30;;;15.40;99.90;;;;;;5055607;28;20429;-74
2021/08/11 03:59:28;;;;;;;20.98;9.95;;;15.40;99.90;;;;;;5053706;28;20029;-74
2021/08/11 04:01:54;;;;;;;12.93;8.50;;;15.40;99.90;;;;;;5063004;28;20045;-74
2021/08/11 04:04:20;;;;;;;14.25;9.65;;;15.40;99.90;;;;;;5055615;28;20025;-74
2021/08/11 04:06:46;;;;;;;16.80;8.82;;;15.40;99.90;;;;;;5053812;28;20111;-74
2021/08/11 04:09:12;;;;;;;19.65;9.43;;;15.40;99.90;;;;;;5054841;28;20519;-74
2021/08/11 04:11:37;;;;;;;15.32;8.63;;;15.40;99.90;;;;;;5056970;28;20024;-74
2021/08/11 04:14:03;;;;;;;19.00;10.15;;;15.40;99.90;;;;;;5069525;28;20033;-75
2021/08/11 04:16:29;;;;;;;14.52;8.95;;;15.40;99.90;;;;;;5071051;28;20029;-75
2021/08/11 04:18:54;;;;;;;17.67;9.35;;;15.40;99.90;;;;;;5072587;28;20063;-74
2021/08/11 04:21:20;;;;;;;18.02;10.13;;;15.40;99.90;;;;;;5074125;28;20041;-76
2021/08/11 04:23:46;;;;;;;27.48;10.48;;;15.40;99.90;;;;;;5073291;28;20021;-75
2021/08/11 04:26:12;;;;;;;16.95;10.70;;;15.40;99.90;;;;;;5072513;28;20031;-76
2021/08/11 04:28:37;;;;;;;16.20;9.98;;;15.40;99.90;;;;;;5076770;28;20039;-75
2021/08/11 04:31:03;;;;;;;17.02;9.52;;;15.40;99.90;;;;;;5074432;28;20064;-76
2021/08/11 04:33:29;;;;;;;17.30;9.90;;;15.40;99.90;;;;;;5073761;28;20025;-75
2021/08/11 04:35:55;;;;;;;23.05;11.07;;;15.40;99.90;;;;;;5072835;28;20046;-77
2021/08/11 04:38:20;;;;;;;20.98;10.77;;;15.50;99.90;;;;;;5087421;28;20024;-77
2021/08/11 04:40:46;;;;;;;20.30;10.48;;;15.50;99.90;;;;;;5076039;28;20021;-75
2021/08/11 04:43:12;;;;;;;18.98;10.80;;;15.50;99.90;;;;;;5075165;28;20028;-76
2021/08/11 04:45:39;;;;;;;19.55;11.23;;;15.40;99.90;;;;;;5077016;28;20049;-75
2021/08/11 04:48:05;;;;;;;19.13;10.67;;;15.50;99.90;;;;;;5076634;28;20060;-76
2021/08/11 04:50:31;;;;;;;22.25;11.05;;;15.50;99.90;;;;;;5075925;28;20268;-75
2021/08/11 04:52:56;;;;;;;20.17;11.52;;;15.50;99.90;;;;;;5075475;28;20048;-75
2021/08/11 04:55:22;;;;;;;17.83;10.70;;;15.50;99.90;;;;;;5073853;28;20103;-75
2021/08/11 04:57:47;;;;;;;21.33;11.98;;;15.50;99.90;;;;;;5074831;28;20054;-79
2021/08/11 05:00:14;;;;;;;25.95;12.25;;;15.50;99.90;;;;;;5072572;28;20012;-73
2021/08/11 05:02:39;;;;;;;23.05;13.20;;;15.60;99.90;;;;;;5058474;28;20455;-75
2021/08/11 05:05:06;;;;;;;26.83;12.38;;;15.60;99.90;;;;;;5060737;28;20037;-75
2021/08/11 05:07:32;;;;;;;21.35;12.27;;;15.60;99.90;;;;;;5059283;28;20029;-75
2021/08/11 05:09:58;;;;;;;18.42;11.43;;;15.60;99.90;;;;;;5056203;28;20055;-76
2021/08/11 05:12:24;;;;;;;21.00;12.05;;;15.60;99.90;;;;;;5054848;28;20036;-74
2021/08/11 05:14:53;;;;;;;19.10;11.80;;;15.70;99.90;;;;;;5053809;28;20409;-75
2021/08/11 05:17:22;;;;;;;21.15;12.20;;;15.70;99.90;;;;;;5070012;28;20048;-76
2021/08/11 05:19:50;;;;;;;24.20;11.68;;;15.70;99.90;;;;;;5057449;28;20369;-75
2021/08/11 05:22:17;;;;;;;32.55;13.30;;;15.80;99.90;;;;;;5054113;28;20508;-75
2021/08/11 05:24:43;;;;;;;24.33;13.00;;;15.80;99.90;;;;;;5055305;28;20032;-75
2021/08/11 05:27:09;;;;;;;23.95;12.20;;;15.80;99.90;;;;;;5054442;28;20249;-76
2021/08/11 05:29:34;;;;;;;18.58;12.25;;;15.90;99.90;;;;;;5050872;28;20037;-75
2021/08/11 05:32:00;;;;;;;22.95;12.82;;;15.90;99.90;;;;;;5050319;28;20027;-75
2021/08/11 05:34:26;;;;;;;25.40;13.32;;;16.00;99.90;;;;;;5049153;28;20047;-76
2021/08/11 05:36:51;;;;;;;23.20;11.88;;;16.00;99.90;;;;;;5049604;28;20385;-75
2021/08/11 05:39:35;;;;;;;19.08;10.82;;;16.10;99.90;;;;;;5051857;28;20028;-75
2021/08/11 05:42:02;;;;;;;21.63;11.30;;;16.10;99.90;;;;;;5049517;28;20032;-74
2021/08/11 05:44:27;;;;;;;22.77;12.05;;;16.20;99.90;;;;;;5051507;28;20033;-75
2021/08/11 05:46:54;;;;;;;20.00;10.23;;;16.40;99.90;;;;;;5053488;28;20432;-75
2021/08/11 05:49:20;;;;;;;16.33;9.43;;;16.50;99.90;;;;;;5050719;28;20465;-75
2021/08/11 05:51:46;;;;;;;20.75;11.10;;;16.60;99.90;;;;;;5048816;28;20301;-75
2021/08/11 05:54:12;;;;;;;23.17;10.70;;;16.80;99.90;;;;;;5046666;28;20433;-75
2021/08/11 05:56:37;;;;;;;14.88;9.30;;;16.90;99.90;;;;;;5053164;28;20471;-75
2021/08/11 05:59:03;;;;;;;17.17;10.00;;;16.90;99.90;;;;;;5051320;28;20032;-75
2021/08/11 06:01:28;;;;;;;20.80;10.27;;;16.90;99.90;;;;;;5051408;28;20036;-76
2021/08/11 06:03:58;;;;;;;17.60;11.07;;;17.00;99.90;;;;;;5047662;28;20049;-75
2021/08/11 06:06:25;;;;;;;22.38;10.27;;;17.10;99.90;;;;;;5050700;28;20021;-75
2021/08/11 06:08:50;;;;;;;19.10;10.38;;;17.10;99.90;;;;;;5047557;28;20029;-75
2021/08/11 06:11:16;;;;;;;18.00;9.90;;;17.00;99.90;;;;;;5044415;28;20025;-75
2021/08/11 06:13:42;;;;;;;23.83;9.38;;;17.00;99.90;;;;;;5049686;28;20043;-75
2021/08/11 06:16:07;;;;;;;20.83;10.13;;;17.10;99.90;;;;;;5047777;28;20037;-75
2021/08/11 06:18:33;;;;;;;25.70;10.57;;;17.10;99.90;;;;;;5051101;28;20029;-75
2021/08/11 06:20:59;;;;;;;20.42;10.90;;;17.20;99.90;;;;;;5050545;28;20031;-76
2021/08/11 06:23:24;;;;;;;20.55;8.93;;;17.30;99.90;;;;;;5052525;28;20377;-74
2021/08/11 06:25:50;;;;;;;15.63;8.88;;;17.40;99.90;;;;;;5049925;28;20018;-74
2021/08/11 06:28:16;;;;;;;16.67;9.20;;;17.50;99.90;;;;;;5050043;28;20389;-74
2021/08/11 06:30:41;;;;;;;18.90;9.70;;;17.50;99.90;;;;;;5052349;28;20024;-74
2021/08/11 06:33:07;;;;;;;21.77;9.63;;;17.60;99.90;;;;;;5051054;28;20021;-74
2021/08/11 06:35:33;;;;;;;19.42;8.93;;;17.70;99.90;;;;;;5054798;28;20025;-75
2021/08/11 06:37:58;;;;;;;16.00;8.77;;;17.70;99.90;;;;;;5055758;28;20059;-74
2021/08/11 06:40:24;;;;;;;17.45;8.73;;;17.80;99.90;;;;;;5054341;28;20734;-74
2021/08/11 06:42:51;;;;;;;21.33;8.63;;;17.90;99.90;;;;;;5056653;28;20075;-74
2021/08/11 06:45:17;;;;;;;17.83;9.52;;;18.00;99.90;;;;;;5072855;28;20151;-74
2021/08/11 06:47:43;;;;;;;15.95;8.10;;;18.00;99.90;;;;;;5055754;28;20021;-74
2021/08/11 06:50:10;;;;;;;21.30;8.45;;;18.10;99.90;;;;;;5056130;28;20116;-74
2021/08/11 06:52:37;;;;;;;16.10;7.40;;;18.20;99.90;;;;;;5053677;28;20040;-74
2021/08/11 06:55:15;;;;;;;15.40;8.23;;;18.30;99.90;;;;;;5051152;28;20036;-73
2021/08/11 06:57:42;;;;;;;15.13;8.10;;;18.40;99.90;;;;;;5055677;28;20071;-74
2021/08/11 07:00:09;;;;;;;10.80;7.20;;;18.60;99.90;;;;;;5055848;28;20028;-77
2021/08/11 07:02:35;;;;;;;14.13;7.68;;;18.70;99.90;;;;;;5050935;28;20083;-74
2021/08/11 07:05:01;;;;;;;18.42;7.43;;;18.80;99.90;;;;;;5056238;28;20024;-74
2021/08/11 07:07:27;;;;;;;12.82;7.40;;;18.90;99.90;;;;;;5053550;28;20029;-75
2021/08/11 07:09:54;;;;;;;10.43;6.80;;;19.00;99.90;;;;;;5055117;28;20116;-72
2021/08/11 07:12:20;;;;;;;9.32;6.20;;;19.10;99.90;;;;;;5055181;28;20029;-74
2021/08/11 07:14:47;;;;;;;12.85;6.45;;;19.20;99.90;;;;;;5055459;28;20029;-73
2021/08/11 07:17:13;;;;;;;12.90;6.50;;;19.40;99.90;;;;;;5069785;28;20503;-74
2021/08/11 07:19:39;;;;;;;12.32;7.28;;;19.60;99.90;;;;;;5071095;28;20021;-73
2021/08/11 07:22:06;;;;;;;13.52;5.75;;;19.70;99.90;;;;;;5054166;28;20029;-75
2021/08/11 07:24:31;;;;;;;13.57;6.15;;;19.70;99.90;;;;;;5056480;28;20025;-73
2021/08/11 07:26:57;;;;;;;14.52;6.38;;;19.80;99.90;;;;;;5053309;28;20434;-73
2021/08/11 07:29:22;;;;;;;12.73;5.90;;;19.80;99.90;;;;;;5055070;28;20040;-73
2021/08/11 07:31:48;;;;;;;11.68;6.32;;;19.80;99.90;;;;;;5053950;28;20446;-74
2021/08/11 07:34:14;;;;;;;10.80;5.78;;;19.90;99.90;;;;;;5070610;28;20025;-74
2021/08/11 07:36:39;;;;;;;7.95;5.07;;;20.00;99.90;;;;;;5070348;28;20024;-73
2021/08/11 07:39:05;;;;;;;9.18;5.38;;;20.00;99.90;;;;;;5054690;28;20025;-72
2021/08/11 07:41:30;;;;;;;9.60;5.18;;;20.10;99.90;;;;;;5051796;28;20111;-73
2021/08/11 07:43:56;;;;;;;9.32;5.10;;;20.20;99.90;;;;;;5055760;28;20032;-76
2021/08/11 07:46:24;;;;;;;10.63;5.63;;;20.30;99.90;;;;;;5056357;28;20028;-77
2021/08/11 07:48:50;;;;;;;8.05;5.00;;;20.30;99.90;;;;;;5054636;28;20120;-75
2021/08/11 07:51:15;;;;;;;7.55;4.95;;;20.40;99.90;;;;;;5055382;28;20115;-78
2021/08/11 07:53:41;;;;;;;7.22;4.47;;;20.30;99.90;;;;;;5058041;28;20021;-80
2021/08/11 07:56:06;;;;;;;8.30;4.25;;;20.40;99.90;;;;;;5055914;28;20021;-80
2021/08/11 07:58:33;;;;;;;7.95;4.18;;;20.30;99.90;;;;;;5056462;28;20028;-75
2021/08/11 08:00:59;;;;;;;8.38;4.40;;;20.40;99.90;;;;;;5055463;28;20025;-83
2021/08/11 08:03:25;;;;;;;7.82;4.22;;;20.50;99.90;;;;;;5069838;28;20048;-83
2021/08/11 08:05:50;;;;;;;7.70;5.18;;;20.50;99.90;;;;;;5055950;28;20017;-80
2021/08/11 08:08:17;;;;;;;7.15;4.35;;;20.50;99.90;;;;;;5059772;28;20043;-82
2021/08/11 08:10:42;;;;;;;9.88;4.63;;;20.60;99.90;;;;;;5054886;28;20059;-83
2021/08/11 08:13:08;;;;;;;5.47;4.05;;;20.60;99.90;;;;;;5053210;28;20415;-78
2021/08/11 08:15:34;;;;;;;12.75;5.55;;;20.50;99.90;;;;;;5056219;28;20047;-80
2021/08/11 08:18:00;;;;;;;8.88;4.25;;;20.40;99.90;;;;;;5054862;28;20392;-80
2021/08/11 08:20:25;;;;;;;8.02;3.70;;;20.40;99.90;;;;;;5054774;28;20021;-81
2021/08/11 08:22:51;;;;;;;10.02;3.88;;;20.40;99.90;;;;;;5054701;28;20384;-77
2021/08/11 08:25:21;;;;;;;5.88;3.85;;;20.50;99.90;;;;;;5054302;28;20048;-75
2021/08/11 08:27:49;;;;;;;9.63;4.60;;;20.50;99.90;;;;;;5053842;28;20183;-75
2021/08/11 08:30:16;;;;;;;7.85;4.35;;;20.60;99.90;;;;;;5052851;28;20111;-75
2021/08/11 08:32:42;;;;;;;11.05;4.57;;;20.60;99.90;;;;;;5052292;28;20035;-76
2021/08/11 08:35:08;;;;;;;6.80;3.92;;;20.70;99.90;;;;;;5053608;28;20158;-75
2021/08/11 08:37:38;;;;;;;8.13;4.57;;;20.80;99.90;;;;;;5069269;28;20024;-75
2021/08/11 08:40:12;;;;;;;7.80;3.67;;;20.90;99.90;;;;;;5053267;28;20516;-75
2021/08/11 08:42:41;;;;;;;6.38;3.60;;;21.00;99.90;;;;;;5051517;28;20028;-75
2021/08/11 08:45:08;;;;;;;8.75;4.07;;;21.10;99.90;;;;;;5049844;28;20029;-75
2021/08/11 08:47:36;;;;;;;8.85;3.65;;;21.20;99.90;;;;;;5052924;28;20481;-76
2021/08/11 08:50:07;;;;;;;6.85;3.78;;;21.40;99.90;;;;;;5050669;28;20037;-76
2021/08/11 08:52:34;;;;;;;9.85;4.00;;;21.70;99.90;;;;;;5051455;28;20037;-76
2021/08/11 08:55:00;;;;;;;6.70;4.43;;;21.90;99.90;;;;;;5053157;28;20025;-76
2021/08/11 08:57:27;;;;;;;7.10;4.28;;;22.10;99.90;;;;;;5052470;28;20404;-76
2021/08/11 08:59:53;;;;;;;9.93;4.80;;;22.40;99.90;;;;;;5050189;28;20025;-73
2021/08/11 09:02:19;;;;;;;7.88;4.43;;;22.80;99.90;;;;;;5045543;28;20417;-75
2021/08/11 09:04:45;;;;;;;10.98;4.35;;;23.00;99.90;;;;;;5049703;28;20021;-75
2021/08/11 09:07:19;;;;;;;9.85;3.97;;;23.20;99.90;;;;;;5050335;28;20079;-77
2021/08/11 09:09:45;;;;;;;6.13;3.78;;;23.30;99.90;;;;;;5053188;28;20029;-76
2021/08/11 09:12:16;;;;;;;5.45;3.67;;;23.20;99.90;;;;;;5054010;28;20021;-77
2021/08/11 09:14:47;;;;;;;7.13;3.70;;;23.40;99.90;;;;;;5065929;28;20381;-74
2021/08/11 09:17:34;;;;;;;5.88;3.45;;;23.60;99.90;;;;;;5053939;28;20068;-76
2021/08/11 09:20:00;;;;;;;;;;;23.70;99.90;;;;;;5053335;28;20021;-75
2021/08/11 09:22:26;;;;;;;6.57;3.70;;;24.00;99.90;;;;;;5053622;28;19909;-75
2021/08/11 09:25:10;;;;;;;4.97;3.47;;;24.20;99.90;;;;;;5057205;28;20021;-75
2021/08/11 09:27:40;;;;;;;4.45;3.13;;;24.60;99.90;;;;;;5045705;28;20026;-76
2021/08/11 09:30:16;;;;;;;4.22;2.80;;;24.80;99.90;;;;;;5056034;28;20052;-76
2021/08/11 09:33:03;;;;;;;3.88;2.50;;;25.20;99.90;;;;;;5054680;28;20476;-76
2021/08/11 09:35:31;;;;;;;6.80;3.08;;;25.50;99.90;;;;;;5053367;28;20028;-77
2021/08/11 09:37:59;;;;;;;4.85;3.03;;;26.10;99.90;;;;;;5053886;28;20082;-76
2021/08/11 09:40:29;;;;;;;7.13;2.60;;;26.40;99.90;;;;;;5051875;28;20120;-75
2021/08/11 09:43:01;;;;;;;13.32;3.97;;;26.60;99.60;;;;;;5049391;28;20028;-77
2021/08/11 09:45:40;;;;;;;8.90;2.88;;;26.90;98.90;;;;;;5052308;28;20366;-77
2021/08/11 09:48:06;;;;;;;5.30;2.63;;;27.00;99.70;;;;;;5052710;28;20478;-78
2021/08/11 09:50:46;;;;;;;5.43;3.15;;;27.10;99.30;;;;;;5055766;28;20063;-76
2021/08/11 09:53:34;;;;;;;8.60;2.50;;;26.90;99.20;;;;;;5052167;28;20024;-76
2021/08/11 09:56:08;;;;;;;6.53;3.05;;;26.70;99.60;;;;;;5052001;28;20024;-77
2021/08/11 09:58:38;;;;;;;4.13;2.58;;;26.60;99.40;;;;;;5071150;28;20381;-77
2021/08/11 10:01:22;;;;;;;6.82;2.97;;;26.40;99.30;;;;;;5057865;28;20116;-78
2021/08/11 10:04:04;;;;;;;4.82;2.70;;;26.20;98.80;;;;;;5051436;28;20067;-76
2021/08/11 10:06:32;;;;;;;7.22;2.90;;;25.90;99.30;;;;;;5055448;28;20077;-78
2021/08/11 10:09:18;;;;;;;12.70;2.45;;;25.40;98.80;;;;;;5080505;28;20028;-77
2021/08/11 10:11:51;;;;;;;5.20;2.45;;;25.10;99.30;;;;;;5067662;28;20033;-78
2021/08/11 10:14:22;;;;;;;7.78;2.65;;;24.90;99.90;;;;;;5069606;28;20055;-78
2021/08/11 10:16:49;;;;;;;3.97;2.88;;;25.10;99.90;;;;;;5069187;28;20033;-76
2021/08/11 10:19:15;;;;;;;6.25;2.60;;;25.20;99.90;;;;;;5072088;28;20033;-76
2021/08/11 10:22:00;;;;;;;5.55;2.60;;;25.50;99.90;;;;;;5072304;28;20028;-76
2021/08/11 10:24:28;;;;;;;4.00;2.45;;;25.60;99.80;;;;;;5089126;28;20036;-76
2021/08/11 10:26:54;;;;;;;4.07;2.30;;;25.70;98.80;;;;;;5080835;28;20040;-75
2021/08/11 10:29:20;;;;;;;2.45;1.70;;;25.70;98.60;;;;;;5091173;28;20040;-75
2021/08/11 10:31:51;;;;;;;2.80;1.90;;;25.60;98.00;;;;;;5077089;28;20037;-75
2021/08/11 10:34:18;;;;;;;2.75;2.35;;;25.70;98.20;;;;;;5061659;28;20055;-75
2021/08/11 10:36:46;;;;;;;7.00;2.55;;;26.10;98.70;;;;;;5075929;28;20029;-76
2021/08/11 10:39:16;;;;;;;5.13;2.58;;;26.20;97.70;;;;;;5075989;28;20033;-76
2021/08/11 10:41:42;;;;;;;4.05;2.33;;;26.40;98.50;;;;;;5089497;28;20028;-75
2021/08/11 10:44:17;;;;;;;3.92;2.28;;;26.50;98.20;;;;;;5082812;28;20038;-76
2021/08/11 10:46:46;;;;;;;4.00;1.98;;;26.60;97.00;;;;;;5057642;28;20036;-79
2021/08/11 10:49:16;;;;;;;2.17;1.85;;;26.40;98.00;;;;;;5097548;28;20072;-75
2021/08/11 10:51:47;;;;;;;3.90;2.35;;;26.10;98.00;;;;;;5095143;28;20037;-78
2021/08/11 10:54:13;;;;;;;3.97;2.25;;;25.70;98.10;;;;;;5093051;28;20033;-75
2021/08/11 10:56:43;;;;;;;5.25;2.42;;;25.50;98.60;;;;;;5094330;28;20025;-76
2021/08/11 10:59:21;;;;;;;4.13;2.78;;;25.50;98.50;;;;;;5091861;28;20047;-75
2021/08/11 11:01:56;;;;;;;9.98;3.83;;;25.50;99.90;;;;;;5077382;28;20050;-75
2021/08/11 11:04:46;;;;;;;4.60;2.60;;;25.40;99.90;;;;;;5082459;28;20047;-76
2021/08/11 11:07:18;;;;;;;3.28;2.42;;;25.20;99.90;;;;;;5085544;28;20025;-77
2021/08/11 11:09:45;;;;;;;6.53;3.22;;;25.10;99.90;;;;;;5056872;28;20021;-76
2021/08/11 11:12:37;;;;;;;7.05;3.10;;;25.00;99.80;;;;;;5071500;28;20036;-77
2021/08/11 11:15:03;;;;;;;3.15;2.30;;;24.90;99.30;;;;;;5088663;28;20039;-76
2021/08/11 11:17:36;;;;;;;4.15;2.35;;;24.70;99.90;;;;;;5099891;28;20024;-75
2021/08/11 11:20:05;;;;;;;4.18;2.08;;;24.60;99.90;;;;;;5098481;28;20036;-75
2021/08/11 11:22:34;;;;;;;3.17;2.20;;;24.30;99.90;;;;;;5090903;28;20037;-75
2021/08/11 11:24:59;;;;;;;5.10;2.95;;;24.30;99.90;;;;;;5082059;28;20041;-76
2021/08/11 11:27:44;;;;;;;3.88;2.25;;;24.40;99.90;;;;;;5082493;28;20039;-76
2021/08/11 11:30:34;;;;;;;3.88;2.30;;;24.60;99.90;;;;;;5095768;28;20031;-76
2021/08/11 11:33:18;;;;;;;2.72;1.92;;;24.60;99.90;;;;;;5078498;28;20124;-76
2021/08/11 11:35:44;;;;;;;3.28;1.90;;;24.60;99.90;;;;;;5064561;28;20060;-76
2021/08/11 11:38:13;;;;;;;3.67;2.30;;;24.60;99.90;;;;;;5099624;28;20013;-76
2021/08/11 11:40:54;;;;;;;5.80;2.90;;;24.60;99.90;;;;;;5088444;28;20012;-75
2021/08/11 11:43:28;;;;;;;2.47;2.15;;;24.50;99.90;;;;;;5096294;28;20114;-75
2021/08/11 11:45:55;;;;;;;4.78;2.40;;;24.40;99.90;;;;;;5066968;28;20100;-76
2021/08/11 11:48:21;;;;;;;4.20;2.50;;;24.40;99.90;;;;;;5096582;28;20025;-75
2021/08/11 11:50:49;;;;;;;5.38;2.70;;;24.30;99.90;;;;;;5098888;28;20028;-75
2021/08/11 11:53:24;;;;;;;6.53;1.98;;;24.20;99.90;;;;;;5089721;28;20131;-77
2021/08/11 11:55:50;;;;;;;4.72;2.28;;;24.20;99.90;;;;;;5098829;28;20028;-75
2021/08/11 11:58:18;;;;;;;5.63;2.75;;;24.40;99.90;;;;;;5097449;28;20019;-75
2021/08/11 12:00:45;;;;;;;3.85;2.33;;;24.30;99.90;;;;;;5091073;28;20032;-76
2021/08/11 12:03:13;;;;;;;4.88;2.85;;;24.20;99.90;;;;;;5085872;28;20036;-76
2021/08/11 12:05:50;;;;;;;6.93;3.25;;;24.20;99.90;;;;;;5093311;28;20074;-76
2021/08/11 12:08:21;;;;;;;7.45;3.15;;;24.30;99.90;;;;;;5094989;28;20020;-76
2021/08/11 12:10:59;;;;;;;4.75;3.20;;;24.40;99.90;;;;;;5097968;28;20009;-75
2021/08/11 12:13:25;;;;;;;8.10;2.70;;;24.60;99.90;;;;;;5083249;28;20028;-75
2021/08/11 12:15:53;;;;;;;4.45;3.15;;;24.70;99.90;;;;;;5076201;28;20061;-73
2021/08/11 12:18:22;;;;;;;;;;;24.40;99.90;;;;;;5064538;28;20350;-73
2021/08/11 12:20:51;;;;;;;10.60;2.35;;;24.60;99.90;;;;;;5073132;28;19916;-74
2021/08/11 12:23:26;;;;;;;3.83;2.58;;;24.80;99.90;;;;;;5081830;28;20016;-75
2021/08/11 12:26:00;;;;;;;4.38;2.75;;;25.00;99.90;;;;;;5081617;28;20078;-75
2021/08/11 12:28:37;;;;;;;3.08;2.55;;;25.10;99.90;;;;;;5051372;28;20037;-75
2021/08/11 12:31:25;;;;;;;5.32;3.00;;;25.20;99.90;;;;;;5060149;28;20094;-76
2021/08/11 12:33:53;;;;;;;4.05;2.58;;;25.40;99.90;;;;;;5082590;28;20037;-74
2021/08/11 12:36:21;;;;;;;9.25;3.20;;;25.50;99.30;;;;;;5081053;28;20086;-75
2021/08/11 12:39:01;;;;;;;4.28;2.70;;;25.50;98.70;;;;;;5080592;28;20021;-75
2021/08/11 12:41:27;;;;;;;3.83;2.30;;;25.60;99.20;;;;;;5059957;28;20033;-75
2021/08/11 12:43:56;;;;;;;3.70;2.50;;;25.70;99.40;;;;;;5053044;28;20066;-75
2021/08/11 12:46:43;;;;;;;4.07;2.35;;;25.70;99.00;;;;;;5070882;28;20665;-75
2021/08/11 12:49:28;;;;;;;3.80;2.70;;;25.70;98.40;;;;;;5058957;28;20033;-75
2021/08/11 12:52:03;;;;;;;3.20;2.10;;;25.60;98.10;;;;;;5074015;28;20056;-75